sensor_id;sensor_type;location;lat;lon;timestamp;pressure;altitude;pressure_sealevel;temperature;humidity
75656;BME280;64252;51.094;13.714;2022-12-18T00:02:16;102078.38;;;-9.42;94.06
75656;BME280;64252;51.094;13.714;2022-12-18T00:04:41;102079.22;;;-9.42;93.75
75656;BME280;64252;51.094;13.714;2022-12-18T00:07:07;102080.69;;;-9.46;94.27
75656;BME280;64252;51.094;13.714;2022-12-18T00:09:33;102077.34;;;-9.54;94.60
75656;BME280;64252;51.094;13.714;2022-12-18T00:11:58;102081.78;;;-9.53;94.28
75656;BME280;64252;51.094;13.714;2022-12-18T00:14:23;102094.41;;;-9.52;94.81
75656;BME280;64252;51.094;13.714;2022-12-18T00:16:49;102106.59;;;-9.48;94.40
75656;BME280;64252;51.094;13.714;2022-12-18T00:19:14;102114.94;;;-9.37;93.64
75656;BME280;64252;51.094;13.714;2022-12-18T00:21:42;102107.97;;;-9.26;93.20
75656;BME280;64252;51.094;13.714;2022-12-18T00:24:09;102115.78;;;-9.36;92.75
75656;BME280;64252;51.094;13.714;2022-12-18T00:26:36;102103.19;;;-9.37;92.80
75656;BME280;64252;51.094;13.714;2022-12-18T00:29:08;102119.53;;;-9.24;92.13
75656;BME280;64252;51.094;13.714;2022-12-18T00:31:35;102109.91;;;-9.33;92.54
75656;BME280;64252;51.094;13.714;2022-12-18T00:34:02;102106.53;;;-9.35;92.66
75656;BME280;64252;51.094;13.714;2022-12-18T00:36:31;102108.88;;;-9.45;93.08
75656;BME280;64252;51.094;13.714;2022-12-18T00:38:58;102115.44;;;-9.53;93.18
75656;BME280;64252;51.094;13.714;2022-12-18T00:41:24;102117.56;;;-9.61;92.74
75656;BME280;64252;51.094;13.714;2022-12-18T00:44:11;102124.09;;;-9.75;93.26
75656;BME280;64252;51.094;13.714;2022-12-18T00:46:37;102135.22;;;-9.84;93.28
75656;BME280;64252;51.094;13.714;2022-12-18T00:49:03;102133.56;;;-9.91;93.52
75656;BME280;64252;51.094;13.714;2022-12-18T00:51:29;102136.50;;;-9.93;94.96
75656;BME280;64252;51.094;13.714;2022-12-18T00:53:54;102131.44;;;-9.83;94.04
75656;BME280;64252;51.094;13.714;2022-12-18T00:56:20;102135.22;;;-9.84;93.99
75656;BME280;64252;51.094;13.714;2022-12-18T00:58:45;102143.25;;;-9.95;94.51
75656;BME280;64252;51.094;13.714;2022-12-18T01:01:11;102130.19;;;-9.87;94.89
75656;BME280;64252;51.094;13.714;2022-12-18T01:03:36;102122.22;;;-9.82;94.80
75656;BME280;64252;51.094;13.714;2022-12-18T01:06:06;102124.31;;;-9.84;94.66
75656;BME280;64252;51.094;13.714;2022-12-18T01:08:32;102133.97;;;-9.68;94.72
75656;BME280;64252;51.094;13.714;2022-12-18T01:10:58;102131.66;;;-9.78;94.52
75656;BME280;64252;51.094;13.714;2022-12-18T01:13:30;102143.22;;;-9.75;94.66
75656;BME280;64252;51.094;13.714;2022-12-18T01:15:56;102142.59;;;-9.78;94.52
75656;BME280;64252;51.094;13.714;2022-12-18T01:18:21;102136.50;;;-9.80;94.90
75656;BME280;64252;51.094;13.714;2022-12-18T01:20:46;102140.09;;;-9.86;94.52
75656;BME280;64252;51.094;13.714;2022-12-18T01:23:12;102141.53;;;-9.83;95.00
75656;BME280;64252;51.094;13.714;2022-12-18T01:25:38;102152.03;;;-9.73;95.11
75656;BME280;64252;51.094;13.714;2022-12-18T01:28:03;102163.00;;;-9.87;94.86
75656;BME280;64252;51.094;13.714;2022-12-18T01:30:31;102161.94;;;-9.99;95.16
75656;BME280;64252;51.094;13.714;2022-12-18T01:32:56;102160.06;;;-10.05;94.90
75656;BME280;64252;51.094;13.714;2022-12-18T01:35:22;102165.94;;;-9.95;95.90
75656;BME280;64252;51.094;13.714;2022-12-18T01:37:48;102162.56;;;-9.97;95.08
75656;BME280;64252;51.094;13.714;2022-12-18T01:40:13;102165.50;;;-10.05;94.83
75656;BME280;64252;51.094;13.714;2022-12-18T01:42:39;102172.03;;;-9.99;94.78
75656;BME280;64252;51.094;13.714;2022-12-18T01:52:32;102152.28;;;-9.95;95.86
75656;BME280;64252;51.094;13.714;2022-12-18T01:54:59;102163.00;;;-9.87;95.71
75656;BME280;64252;51.094;13.714;2022-12-18T01:57:26;102149.53;;;-9.82;96.01
75656;BME280;64252;51.094;13.714;2022-12-18T01:59:54;102154.16;;;-9.75;95.40
75656;BME280;64252;51.094;13.714;2022-12-18T02:02:22;102158.78;;;-9.76;95.18
75656;BME280;64252;51.094;13.714;2022-12-18T02:04:48;102154.97;;;-9.68;94.35
75656;BME280;64252;51.094;13.714;2022-12-18T02:09:59;102166.31;;;-9.58;94.41
75656;BME280;64252;51.094;13.714;2022-12-18T02:12:34;102158.56;;;-9.68;94.43
75656;BME280;64252;51.094;13.714;2022-12-18T02:17:50;102164.66;;;-9.79;94.16
75656;BME280;64252;51.094;13.714;2022-12-18T02:20:22;102172.03;;;-9.93;94.84
75656;BME280;64252;51.094;13.714;2022-12-18T02:25:59;102152.91;;;-10.12;95.26
75656;BME280;64252;51.094;13.714;2022-12-18T02:28:31;102158.38;;;-10.06;95.37
75656;BME280;64252;51.094;13.714;2022-12-18T02:31:06;102165.50;;;-10.05;95.17
75656;BME280;64252;51.094;13.714;2022-12-18T02:33:34;102177.28;;;-10.04;94.08
75656;BME280;64252;51.094;13.714;2022-12-18T02:36:01;102176.47;;;-9.98;94.69
75656;BME280;64252;51.094;13.714;2022-12-18T02:38:30;102181.47;;;-10.02;93.81
75656;BME280;64252;51.094;13.714;2022-12-18T02:41:04;102174.97;;;-10.01;94.17
75656;BME280;64252;51.094;13.714;2022-12-18T02:43:30;102173.28;;;-9.95;94.57
75656;BME280;64252;51.094;13.714;2022-12-18T02:45:59;102180.03;;;-9.85;93.79
75656;BME280;64252;51.094;13.714;2022-12-18T02:48:33;102179.38;;;-9.73;93.89
75656;BME280;64252;51.094;13.714;2022-12-18T02:51:31;102168.84;;;-9.63;93.17
75656;BME280;64252;51.094;13.714;2022-12-18T02:54:09;102166.28;;;-9.45;92.06
75656;BME280;64252;51.094;13.714;2022-12-18T02:56:49;102170.47;;;-9.36;91.57
75656;BME280;64252;51.094;13.714;2022-12-18T02:59:24;102173.00;;;-9.28;91.13
75656;BME280;64252;51.094;13.714;2022-12-18T03:02:16;102170.03;;;-9.20;91.79
75656;BME280;64252;51.094;13.714;2022-12-18T03:07:59;102173.75;;;-9.08;90.81
75656;BME280;64252;51.094;13.714;2022-12-18T03:10:32;102177.13;;;-9.06;90.83
75656;BME280;64252;51.094;13.714;2022-12-18T03:13:13;102180.91;;;-9.00;90.86
75656;BME280;64252;51.094;13.714;2022-12-18T03:15:46;102174.59;;;-9.01;90.52
75656;BME280;64252;51.094;13.714;2022-12-18T03:18:25;102172.25;;;-9.04;89.67
75656;BME280;64252;51.094;13.714;2022-12-18T03:20:54;102175.44;;;-9.07;90.07
75656;BME280;64252;51.094;13.714;2022-12-18T03:23:26;102188.06;;;-9.06;90.25
75656;BME280;64252;51.094;13.714;2022-12-18T03:25:56;102190.59;;;-9.04;90.07
75656;BME280;64252;51.094;13.714;2022-12-18T03:28:27;102187.44;;;-9.01;89.38
75656;BME280;64252;51.094;13.714;2022-12-18T03:31:00;102184.47;;;-9.00;89.91
75656;BME280;64252;51.094;13.714;2022-12-18T03:33:34;102181.75;;;-9.00;89.68
75656;BME280;64252;51.094;13.714;2022-12-18T03:36:01;102180.47;;;-8.97;90.01
75656;BME280;64252;51.094;13.714;2022-12-18T03:38:27;102187.63;;;-8.96;90.61
75656;BME280;64252;51.094;13.714;2022-12-18T03:43:40;102195.59;;;-8.88;89.30
75656;BME280;64252;51.094;13.714;2022-12-18T03:49:05;102193.69;;;-8.88;89.68
75656;BME280;64252;51.094;13.714;2022-12-18T03:51:43;102194.31;;;-8.85;89.64
75656;BME280;64252;51.094;13.714;2022-12-18T03:54:11;102187.34;;;-8.81;89.46
75656;BME280;64252;51.094;13.714;2022-12-18T03:56:46;102198.31;;;-8.81;90.05
75656;BME280;64252;51.094;13.714;2022-12-18T03:59:15;102191.34;;;-8.77;89.20
75656;BME280;64252;51.094;13.714;2022-12-18T04:01:46;102198.13;;;-8.86;88.70
75656;BME280;64252;51.094;13.714;2022-12-18T04:04:15;102187.81;;;-8.98;88.73
75656;BME280;64252;51.094;13.714;2022-12-18T04:06:43;102203.84;;;-9.08;90.17
75656;BME280;64252;51.094;13.714;2022-12-18T04:09:11;102194.63;;;-9.13;89.25
75656;BME280;64252;51.094;13.714;2022-12-18T04:11:42;102204.94;;;-9.15;89.08
75656;BME280;64252;51.094;13.714;2022-12-18T04:14:10;102199.91;;;-9.25;90.16
75656;BME280;64252;51.094;13.714;2022-12-18T04:16:36;102215.28;;;-9.30;89.23
75656;BME280;64252;51.094;13.714;2022-12-18T04:19:10;102213.63;;;-9.38;89.59
75656;BME280;64252;51.094;13.714;2022-12-18T04:21:39;102210.69;;;-9.43;90.64
75656;BME280;64252;51.094;13.714;2022-12-18T04:24:05;102213.19;;;-9.55;89.80
75656;BME280;64252;51.094;13.714;2022-12-18T04:26:34;102224.78;;;-9.59;90.94
75656;BME280;64252;51.094;13.714;2022-12-18T04:29:09;102214.50;;;-9.70;90.83
75656;BME280;64252;51.094;13.714;2022-12-18T04:31:35;102197.88;;;-9.75;90.80
75656;BME280;64252;51.094;13.714;2022-12-18T04:34:02;102208.81;;;-9.82;90.84
75656;BME280;64252;51.094;13.714;2022-12-18T04:36:28;102214.69;;;-9.92;91.38
75656;BME280;64252;51.094;13.714;2022-12-18T04:38:54;102216.59;;;-9.99;91.42
75656;BME280;64252;51.094;13.714;2022-12-18T04:41:20;102226.47;;;-10.04;91.09
75656;BME280;64252;51.094;13.714;2022-12-18T04:43:48;102229.81;;;-10.09;92.08
75656;BME280;64252;51.094;13.714;2022-12-18T04:46:13;102231.47;;;-10.14;91.16
75656;BME280;64252;51.094;13.714;2022-12-18T04:48:40;102223.50;;;-10.29;91.33
75656;BME280;64252;51.094;13.714;2022-12-18T04:51:06;102240.31;;;-10.32;92.73
75656;BME280;64252;51.094;13.714;2022-12-18T04:53:32;102231.50;;;-10.28;92.70
75656;BME280;64252;51.094;13.714;2022-12-18T04:56:12;102232.56;;;-10.22;92.79
75656;BME280;64252;51.094;13.714;2022-12-18T04:58:39;102226.66;;;-10.19;92.61
75656;BME280;64252;51.094;13.714;2022-12-18T05:01:06;102223.09;;;-10.19;92.52
75656;BME280;64252;51.094;13.714;2022-12-18T05:03:33;102225.19;;;-10.28;92.04
75656;BME280;64252;51.094;13.714;2022-12-18T05:05:59;102235.00;;;-10.40;92.63
75656;BME280;64252;51.094;13.714;2022-12-18T05:08:25;102220.97;;;-10.37;92.67
75656;BME280;64252;51.094;13.714;2022-12-18T05:11:04;102223.44;;;-10.49;92.90
75656;BME280;64252;51.094;13.714;2022-12-18T05:13:31;102234.97;;;-10.53;93.54
75656;BME280;64252;51.094;13.714;2022-12-18T05:15:57;102233.66;;;-10.71;93.37
75656;BME280;64252;51.094;13.714;2022-12-18T05:18:23;102231.97;;;-10.72;93.26
75656;BME280;64252;51.094;13.714;2022-12-18T05:20:50;102225.66;;;-10.72;93.87
75656;BME280;64252;51.094;13.714;2022-12-18T05:23:15;102225.25;;;-10.76;93.46
75656;BME280;64252;51.094;13.714;2022-12-18T05:25:41;102225.44;;;-10.84;93.00
75656;BME280;64252;51.094;13.714;2022-12-18T05:28:06;102231.50;;;-10.82;93.90
75656;BME280;64252;51.094;13.714;2022-12-18T05:30:32;102234.19;;;-10.95;93.50
75656;BME280;64252;51.094;13.714;2022-12-18T05:32:57;102238.19;;;-10.91;93.79
75656;BME280;64252;51.094;13.714;2022-12-18T05:35:23;102234.84;;;-10.93;93.07
75656;BME280;64252;51.094;13.714;2022-12-18T05:37:48;102219.13;;;-10.84;93.92
75656;BME280;64252;51.094;13.714;2022-12-18T05:40:14;102225.19;;;-10.89;93.05
75656;BME280;64252;51.094;13.714;2022-12-18T05:42:40;102225.75;;;-11.00;93.65
75656;BME280;64252;51.094;13.714;2022-12-18T05:45:06;102222.06;;;-10.86;93.21
75656;BME280;64252;51.094;13.714;2022-12-18T05:47:31;102232.72;;;-10.91;93.24
75656;BME280;64252;51.094;13.714;2022-12-18T05:49:57;102228.72;;;-10.95;93.06
75656;BME280;64252;51.094;13.714;2022-12-18T05:52:22;102231.22;;;-11.00;93.97
75656;BME280;64252;51.094;13.714;2022-12-18T05:54:48;102238.28;;;-11.12;93.02
75656;BME280;64252;51.094;13.714;2022-12-18T05:57:14;102236.19;;;-11.10;94.20
75656;BME280;64252;51.094;13.714;2022-12-18T05:59:39;102242.41;;;-11.23;93.79
75656;BME280;64252;51.094;13.714;2022-12-18T06:02:05;102240.00;;;-11.11;93.33
75656;BME280;64252;51.094;13.714;2022-12-18T06:04:30;102244.22;;;-11.02;93.27
75656;BME280;64252;51.094;13.714;2022-12-18T06:06:56;102240.06;;;-10.98;93.28
75656;BME280;64252;51.094;13.714;2022-12-18T06:09:22;102242.97;;;-10.99;92.33
75656;BME280;64252;51.094;13.714;2022-12-18T06:11:47;102249.50;;;-10.94;92.44
75656;BME280;64252;51.094;13.714;2022-12-18T06:14:13;102250.53;;;-10.95;92.68
75656;BME280;64252;51.094;13.714;2022-12-18T06:16:39;102256.19;;;-10.96;92.28
75656;BME280;64252;51.094;13.714;2022-12-18T06:19:05;102253.03;;;-11.00;92.86
75656;BME280;64252;51.094;13.714;2022-12-18T06:21:32;102259.69;;;-11.09;92.57
75656;BME280;64252;51.094;13.714;2022-12-18T06:23:57;102262.38;;;-11.16;92.28
75656;BME280;64252;51.094;13.714;2022-12-18T06:26:23;102261.38;;;-11.08;93.30
75656;BME280;64252;51.094;13.714;2022-12-18T06:28:49;102261.31;;;-11.21;92.31
75656;BME280;64252;51.094;13.714;2022-12-18T06:31:15;102251.88;;;-11.19;92.55
75656;BME280;64252;51.094;13.714;2022-12-18T06:33:41;102267.63;;;-11.14;93.41
75656;BME280;64252;51.094;13.714;2022-12-18T06:36:11;102274.84;;;-11.34;93.33
75656;BME280;64252;51.094;13.714;2022-12-18T06:38:38;102277.47;;;-11.47;93.33
75656;BME280;64252;51.094;13.714;2022-12-18T06:41:16;102274.13;;;-11.49;93.67
75656;BME280;64252;51.094;13.714;2022-12-18T06:43:42;102272.41;;;-11.50;93.58
75656;BME280;64252;51.094;13.714;2022-12-18T06:46:09;102269.09;;;-11.46;94.65
75656;BME280;64252;51.094;13.714;2022-12-18T06:48:35;102276.03;;;-11.43;93.87
75656;BME280;64252;51.094;13.714;2022-12-18T06:51:00;102281.63;;;-11.51;94.16
75656;BME280;64252;51.094;13.714;2022-12-18T06:53:26;102275.78;;;-11.48;94.01
75656;BME280;64252;51.094;13.714;2022-12-18T06:55:52;102273.41;;;-11.30;93.93
75656;BME280;64252;51.094;13.714;2022-12-18T06:58:18;102287.47;;;-11.27;92.93
75656;BME280;64252;51.094;13.714;2022-12-18T07:00:44;102286.38;;;-11.32;93.41
75656;BME280;64252;51.094;13.714;2022-12-18T07:03:09;102283.00;;;-11.34;92.94
75656;BME280;64252;51.094;13.714;2022-12-18T07:05:40;102290.38;;;-11.35;93.15
75656;BME280;64252;51.094;13.714;2022-12-18T07:08:06;102303.78;;;-11.33;93.41
75656;BME280;64252;51.094;13.714;2022-12-18T07:10:31;102304.38;;;-11.38;93.28
75656;BME280;64252;51.094;13.714;2022-12-18T07:12:57;102303.88;;;-11.48;93.23
75656;BME280;64252;51.094;13.714;2022-12-18T07:15:22;102298.06;;;-11.38;93.29
75656;BME280;64252;51.094;13.714;2022-12-18T07:17:48;102305.72;;;-11.27;93.15
75656;BME280;64252;51.094;13.714;2022-12-18T07:20:13;102294.88;;;-11.21;93.26
75656;BME280;64252;51.094;13.714;2022-12-18T07:22:39;102300.09;;;-11.19;93.19
75656;BME280;64252;51.094;13.714;2022-12-18T07:25:05;102303.31;;;-11.09;91.72
75656;BME280;64252;51.094;13.714;2022-12-18T07:27:30;102291.78;;;-11.11;92.48
75656;BME280;64252;51.094;13.714;2022-12-18T07:29:56;102307.56;;;-11.06;92.45
75656;BME280;64252;51.094;13.714;2022-12-18T07:32:22;102300.44;;;-11.01;92.95
75656;BME280;64252;51.094;13.714;2022-12-18T07:34:47;102304.44;;;-10.97;92.15
75656;BME280;64252;51.094;13.714;2022-12-18T07:37:13;102313.28;;;-10.95;92.19
75656;BME280;64252;51.094;13.714;2022-12-18T07:39:38;102314.31;;;-10.96;92.23
75656;BME280;64252;51.094;13.714;2022-12-18T07:42:07;102318.97;;;-10.90;91.95
75656;BME280;64252;51.094;13.714;2022-12-18T07:44:51;102323.53;;;-10.97;92.58
75656;BME280;64252;51.094;13.714;2022-12-18T07:47:16;102321.03;;;-10.98;92.90
75656;BME280;64252;51.094;13.714;2022-12-18T07:49:42;102319.84;;;-10.83;91.95
75656;BME280;64252;51.094;13.714;2022-12-18T07:52:07;102325.41;;;-10.70;91.98
75656;BME280;64252;51.094;13.714;2022-12-18T07:54:34;102325.00;;;-10.67;92.03
75656;BME280;64252;51.094;13.714;2022-12-18T07:57:00;102325.22;;;-10.61;91.40
75656;BME280;64252;51.094;13.714;2022-12-18T07:59:25;102336.78;;;-10.59;91.85
75656;BME280;64252;51.094;13.714;2022-12-18T08:01:51;102317.91;;;-10.54;92.20
75656;BME280;64252;51.094;13.714;2022-12-18T08:04:17;102321.34;;;-10.39;92.05
75656;BME280;64252;51.094;13.714;2022-12-18T08:06:42;102317.84;;;-10.20;91.87
75656;BME280;64252;51.094;13.714;2022-12-18T08:09:09;102317.59;;;-10.12;91.66
75656;BME280;64252;51.094;13.714;2022-12-18T08:11:35;102310.31;;;-9.98;91.15
75656;BME280;64252;51.094;13.714;2022-12-18T08:14:00;102308.63;;;-9.93;90.96
75656;BME280;64252;51.094;13.714;2022-12-18T08:16:26;102297.06;;;-9.88;90.44
75656;BME280;64252;51.094;13.714;2022-12-18T08:18:53;102304.66;;;-9.77;90.07
75656;BME280;64252;51.094;13.714;2022-12-18T08:21:24;102303.63;;;-9.69;90.27
75656;BME280;64252;51.094;13.714;2022-12-18T08:23:51;102308.25;;;-9.63;90.19
75656;BME280;64252;51.094;13.714;2022-12-18T08:26:17;102305.09;;;-9.60;90.00
75656;BME280;64252;51.094;13.714;2022-12-18T08:28:43;102307.00;;;-9.54;90.07
75656;BME280;64252;51.094;13.714;2022-12-18T08:31:09;102312.69;;;-9.49;89.64
75656;BME280;64252;51.094;13.714;2022-12-18T08:33:36;102309.13;;;-9.43;89.34
75656;BME280;64252;51.094;13.714;2022-12-18T08:36:03;102319.00;;;-9.36;90.00
75656;BME280;64252;51.094;13.714;2022-12-18T08:38:29;102302.59;;;-9.29;89.07
75656;BME280;64252;51.094;13.714;2022-12-18T08:41:05;102304.50;;;-9.23;88.85
75656;BME280;64252;51.094;13.714;2022-12-18T08:43:31;102317.28;;;-9.17;89.64
75656;BME280;64252;51.094;13.714;2022-12-18T08:46:16;102308.91;;;-9.09;89.73
75656;BME280;64252;51.094;13.714;2022-12-18T08:48:42;102315.38;;;-8.97;88.73
75656;BME280;64252;51.094;13.714;2022-12-18T08:51:07;102308.63;;;-8.88;89.21
75656;BME280;64252;51.094;13.714;2022-12-18T08:53:35;102311.78;;;-8.77;88.22
75656;BME280;64252;51.094;13.714;2022-12-18T08:56:01;102313.88;;;-8.66;87.88
75656;BME280;64252;51.094;13.714;2022-12-18T08:58:27;102316.34;;;-8.58;89.01
75656;BME280;64252;51.094;13.714;2022-12-18T09:00:52;102320.72;;;-8.44;87.82
75656;BME280;64252;51.094;13.714;2022-12-18T09:03:19;102316.69;;;-8.35;87.61
75656;BME280;64252;51.094;13.714;2022-12-18T09:05:48;102311.97;;;-8.28;87.93
75656;BME280;64252;51.094;13.714;2022-12-18T09:08:14;102314.50;;;-8.20;87.26
75656;BME280;64252;51.094;13.714;2022-12-18T09:10:47;102306.41;;;-8.08;87.94
75656;BME280;64252;51.094;13.714;2022-12-18T09:13:14;102318.59;;;-7.97;87.84
75656;BME280;64252;51.094;13.714;2022-12-18T09:15:48;102320.78;;;-7.81;87.95
75656;BME280;64252;51.094;13.714;2022-12-18T09:18:15;102329.38;;;-7.71;86.38
75656;BME280;64252;51.094;13.714;2022-12-18T09:20:41;102332.06;;;-7.58;85.63
75656;BME280;64252;51.094;13.714;2022-12-18T09:23:07;102337.66;;;-7.46;85.18
75656;BME280;64252;51.094;13.714;2022-12-18T09:25:34;102344.09;;;-7.34;85.33
75656;BME280;64252;51.094;13.714;2022-12-18T09:28:12;102340.81;;;-7.18;84.85
75656;BME280;64252;51.094;13.714;2022-12-18T09:30:41;102341.53;;;-7.04;84.44
75656;BME280;64252;51.094;13.714;2022-12-18T09:33:07;102349.72;;;-6.98;84.30
75656;BME280;64252;51.094;13.714;2022-12-18T09:35:36;102337.78;;;-6.85;84.04
75656;BME280;64252;51.094;13.714;2022-12-18T09:38:07;102335.94;;;-6.73;84.52
75656;BME280;64252;51.094;13.714;2022-12-18T09:40:42;102341.91;;;-6.58;84.16
75656;BME280;64252;51.094;13.714;2022-12-18T09:43:14;102328.50;;;-6.48;84.17
75656;BME280;64252;51.094;13.714;2022-12-18T09:45:47;102338.28;;;-6.34;83.63
75656;BME280;64252;51.094;13.714;2022-12-18T09:48:35;102329.97;;;-6.27;83.35
75656;BME280;64252;51.094;13.714;2022-12-18T09:51:12;102326.19;;;-6.14;83.14
75656;BME280;64252;51.094;13.714;2022-12-18T09:53:41;102318.84;;;-6.02;84.12
75656;BME280;64252;51.094;13.714;2022-12-18T09:56:16;102315.31;;;-5.91;84.47
75656;BME280;64252;51.094;13.714;2022-12-18T09:58:49;102312.19;;;-5.83;83.68
75656;BME280;64252;51.094;13.714;2022-12-18T10:01:21;102303.50;;;-5.80;83.73
75656;BME280;64252;51.094;13.714;2022-12-18T10:03:48;102306.03;;;-5.67;84.15
75656;BME280;64252;51.094;13.714;2022-12-18T10:06:19;102303.78;;;-5.58;83.75
75656;BME280;64252;51.094;13.714;2022-12-18T10:17:36;102267.34;;;-5.07;83.89
75656;BME280;64252;51.094;13.714;2022-12-18T10:25:38;102259.88;;;-4.49;83.59
75656;BME280;64252;51.094;13.714;2022-12-18T10:28:15;102249.25;;;-4.28;83.01
75656;BME280;64252;51.094;13.714;2022-12-18T10:30:42;102253.38;;;-4.14;81.36
75656;BME280;64252;51.094;13.714;2022-12-18T10:33:18;102242.31;;;-4.03;81.26
75656;BME280;64252;51.094;13.714;2022-12-18T10:35:44;102238.31;;;-3.95;80.94
75656;BME280;64252;51.094;13.714;2022-12-18T10:41:00;102233.69;;;-3.78;80.39
75656;BME280;64252;51.094;13.714;2022-12-18T10:43:31;102221.16;;;-3.69;79.13
75656;BME280;64252;51.094;13.714;2022-12-18T10:51:39;102219.66;;;-3.60;78.35
75656;BME280;64252;51.094;13.714;2022-12-18T10:54:20;102222.81;;;-3.51;78.57
75656;BME280;64252;51.094;13.714;2022-12-18T10:56:47;102224.75;;;-3.51;78.72
75656;BME280;64252;51.094;13.714;2022-12-18T10:59:15;102220.66;;;-3.49;78.45
75656;BME280;64252;51.094;13.714;2022-12-18T11:01:55;102221.50;;;-3.48;78.21
75656;BME280;64252;51.094;13.714;2022-12-18T11:04:27;102215.47;;;-3.45;79.00
75656;BME280;64252;51.094;13.714;2022-12-18T11:09:25;102214.47;;;-3.39;78.51
75656;BME280;64252;51.094;13.714;2022-12-18T11:11:53;102210.13;;;-3.35;78.03
75656;BME280;64252;51.094;13.714;2022-12-18T11:16:49;102196.63;;;-3.32;77.84
75656;BME280;64252;51.094;13.714;2022-12-18T11:21:54;102190.19;;;-3.21;77.78
75656;BME280;64252;51.094;13.714;2022-12-18T11:24:29;102180.47;;;-3.23;76.88
75656;BME280;64252;51.094;13.714;2022-12-18T11:26:57;102189.16;;;-3.15;77.14
75656;BME280;64252;51.094;13.714;2022-12-18T11:29:34;102186.50;;;-3.26;76.44
75656;BME280;64252;51.094;13.714;2022-12-18T11:32:23;102206.41;;;-3.24;76.24
75656;BME280;64252;51.094;13.714;2022-12-18T11:37:32;102189.81;;;-3.07;76.54
75656;BME280;64252;51.094;13.714;2022-12-18T11:40:03;102183.38;;;-3.13;75.87
75656;BME280;64252;51.094;13.714;2022-12-18T11:45:26;102178.38;;;-3.16;76.50
75656;BME280;64252;51.094;13.714;2022-12-18T11:48:00;102177.78;;;-3.18;76.55
75656;BME280;64252;51.094;13.714;2022-12-18T11:53:01;102202.19;;;-3.10;76.53
75656;BME280;64252;51.094;13.714;2022-12-18T11:55:38;102201.63;;;-3.12;76.30
75656;BME280;64252;51.094;13.714;2022-12-18T12:03:58;102191.00;;;-3.20;77.03
75656;BME280;64252;51.094;13.714;2022-12-18T12:12:05;102210.75;;;-3.28;76.80
75656;BME280;64252;51.094;13.714;2022-12-18T12:17:41;102206.84;;;-3.32;76.63
75656;BME280;64252;51.094;13.714;2022-12-18T12:20:20;102214.47;;;-3.39;77.53
75656;BME280;64252;51.094;13.714;2022-12-18T12:28:57;102223.31;;;-3.37;77.29
75656;BME280;64252;51.094;13.714;2022-12-18T12:40:12;102246.34;;;-3.48;77.25
75656;BME280;64252;51.094;13.714;2022-12-18T12:42:42;102244.91;;;-3.51;77.57
75656;BME280;64252;51.094;13.714;2022-12-18T12:46:03;102253.94;;;-3.56;77.61
75656;BME280;64252;51.094;13.714;2022-12-18T12:48:50;102245.00;;;-3.63;78.18
75656;BME280;64252;51.094;13.714;2022-12-18T12:51:25;102223.63;;;-3.67;78.65
75656;BME280;64252;51.094;13.714;2022-12-18T12:53:52;102223.81;;;-3.74;78.39
75656;BME280;64252;51.094;13.714;2022-12-18T12:56:20;102227.81;;;-3.81;79.03
75656;BME280;64252;51.094;13.714;2022-12-18T12:58:51;102228.63;;;-3.81;78.95
75656;BME280;64252;51.094;13.714;2022-12-18T13:01:49;102217.50;;;-3.86;78.53
75656;BME280;64252;51.094;13.714;2022-12-18T13:04:44;102221.28;;;-3.92;78.93
75656;BME280;64252;51.094;13.714;2022-12-18T13:07:25;102218.19;;;-3.95;78.65
75656;BME280;64252;51.094;13.714;2022-12-18T13:10:13;102211.84;;;-3.96;79.52
75656;BME280;64252;51.094;13.714;2022-12-18T13:13:05;102214.41;;;-4.06;79.46
75656;BME280;64252;51.094;13.714;2022-12-18T13:18:21;102193.66;;;-4.09;78.55
75656;BME280;64252;51.094;13.714;2022-12-18T13:20:50;102202.66;;;-4.13;78.72
75656;BME280;64252;51.094;13.714;2022-12-18T13:23:29;102213.50;;;-4.23;78.95
75656;BME280;64252;51.094;13.714;2022-12-18T13:33:44;102201.38;;;-4.22;78.64
75656;BME280;64252;51.094;13.714;2022-12-18T13:38:39;102208.47;;;-4.26;79.63
75656;BME280;64252;51.094;13.714;2022-12-18T13:43:47;102208.47;;;-4.26;79.33
75656;BME280;64252;51.094;13.714;2022-12-18T13:46:22;102207.00;;;-4.17;78.61
75656;BME280;64252;51.094;13.714;2022-12-18T13:48:51;102207.34;;;-4.14;78.83
75656;BME280;64252;51.094;13.714;2022-12-18T13:51:19;102207.19;;;-4.07;78.96
75656;BME280;64252;51.094;13.714;2022-12-18T13:53:48;102206.22;;;-4.01;79.03
75656;BME280;64252;51.094;13.714;2022-12-18T13:56:23;102201.38;;;-3.94;77.99
75656;BME280;64252;51.094;13.714;2022-12-18T13:59:17;102201.88;;;-3.97;77.72
75656;BME280;64252;51.094;13.714;2022-12-18T14:02:00;102206.22;;;-4.01;79.01
75656;BME280;64252;51.094;13.714;2022-12-18T14:04:31;102210.38;;;-4.15;78.95
75656;BME280;64252;51.094;13.714;2022-12-18T14:07:02;102206.34;;;-4.24;79.13
75656;BME280;64252;51.094;13.714;2022-12-18T14:09:31;102202.97;;;-4.26;79.71
75656;BME280;64252;51.094;13.714;2022-12-18T14:12:00;102212.13;;;-4.37;79.63
75656;BME280;64252;51.094;13.714;2022-12-18T14:14:49;102219.09;;;-4.47;81.07
75656;BME280;64252;51.094;13.714;2022-12-18T14:17:16;102214.31;;;-4.51;80.52
75656;BME280;64252;51.094;13.714;2022-12-18T14:19:44;102216.38;;;-4.58;81.42
75656;BME280;64252;51.094;13.714;2022-12-18T14:22:25;102208.34;;;-4.60;81.59
75656;BME280;64252;51.094;13.714;2022-12-18T14:25:25;102202.28;;;-4.73;81.87
75656;BME280;64252;51.094;13.714;2022-12-18T14:28:13;102190.41;;;-4.74;81.66
75656;BME280;64252;51.094;13.714;2022-12-18T14:30:41;102191.59;;;-4.70;82.16
75656;BME280;64252;51.094;13.714;2022-12-18T14:33:19;102188.28;;;-4.72;81.81
75656;BME280;64252;51.094;13.714;2022-12-18T14:35:55;102175.06;;;-4.70;82.28
75656;BME280;64252;51.094;13.714;2022-12-18T14:41:09;102170.16;;;-4.68;81.94
75656;BME280;64252;51.094;13.714;2022-12-18T14:43:38;102180.97;;;-4.78;82.22